sensor_id;sensor_type;location;lat;lon;timestamp;P1;durP1;ratioP1;P2;durP2;ratioP2
3647;SDS011;1840;48.892;15.312;2023-06-14T00:00:01;6.63;;;4.20;;
3647;SDS011;1840;48.892;15.312;2023-06-14T00:02:30;6.80;;;3.70;;
3647;SDS011;1840;48.892;15.312;2023-06-14T00:05:00;5.90;;;3.70;;
3647;SDS011;1840;48.892;15.312;2023-06-14T00:07:35;7.67;;;4.20;;
3647;SDS011;1840;48.892;15.312;2023-06-14T00:10:05;9.23;;;4.63;;
3647;SDS011;1840;48.892;15.312;2023-06-14T00:12:34;7.57;;;3.93;;
3647;SDS011;1840;48.892;15.312;2023-06-14T00:15:02;7.20;;;4.40;;
3647;SDS011;1840;48.892;15.312;2023-06-14T00:17:31;5.80;;;3.67;;
3647;SDS011;1840;48.892;15.312;2023-06-14T00:20:02;7.77;;;3.60;;
3647;SDS011;1840;48.892;15.312;2023-06-14T00:22:33;8.30;;;3.87;;
3647;SDS011;1840;48.892;15.312;2023-06-14T00:25:03;6.90;;;4.40;;
3647;SDS011;1840;48.892;15.312;2023-06-14T00:27:49;7.50;;;3.93;;
3647;SDS011;1840;48.892;15.312;2023-06-14T00:30:17;7.07;;;3.97;;
3647;SDS011;1840;48.892;15.312;2023-06-14T00:32:46;8.93;;;4.97;;
3647;SDS011;1840;48.892;15.312;2023-06-14T00:35:16;9.20;;;4.47;;
3647;SDS011;1840;48.892;15.312;2023-06-14T00:37:44;8.10;;;4.87;;
3647;SDS011;1840;48.892;15.312;2023-06-14T00:40:12;6.43;;;4.47;;
3647;SDS011;1840;48.892;15.312;2023-06-14T00:42:41;6.73;;;4.43;;
3647;SDS011;1840;48.892;15.312;2023-06-14T00:45:09;8.87;;;4.47;;
3647;SDS011;1840;48.892;15.312;2023-06-14T00:47:37;6.33;;;4.10;;
3647;SDS011;1840;48.892;15.312;2023-06-14T00:50:08;8.63;;;4.50;;
3647;SDS011;1840;48.892;15.312;2023-06-14T00:52:39;9.80;;;5.43;;
3647;SDS011;1840;48.892;15.312;2023-06-14T00:55:07;9.50;;;4.40;;
3647;SDS011;1840;48.892;15.312;2023-06-14T00:57:36;7.50;;;4.20;;
3647;SDS011;1840;48.892;15.312;2023-06-14T01:00:06;8.43;;;4.40;;
3647;SDS011;1840;48.892;15.312;2023-06-14T01:02:36;8.57;;;4.33;;
3647;SDS011;1840;48.892;15.312;2023-06-14T01:05:04;9.10;;;5.80;;
3647;SDS011;1840;48.892;15.312;2023-06-14T01:07:40;6.80;;;4.60;;
3647;SDS011;1840;48.892;15.312;2023-06-14T01:10:27;9.30;;;4.70;;
3647;SDS011;1840;48.892;15.312;2023-06-14T01:13:02;10.23;;;5.07;;
3647;SDS011;1840;48.892;15.312;2023-06-14T01:15:35;9.10;;;4.60;;
3647;SDS011;1840;48.892;15.312;2023-06-14T01:18:04;10.37;;;5.60;;
3647;SDS011;1840;48.892;15.312;2023-06-14T01:20:33;10.10;;;5.13;;
3647;SDS011;1840;48.892;15.312;2023-06-14T01:23:05;11.20;;;5.50;;
3647;SDS011;1840;48.892;15.312;2023-06-14T01:25:33;13.43;;;5.27;;
3647;SDS011;1840;48.892;15.312;2023-06-14T01:28:02;11.60;;;4.70;;
3647;SDS011;1840;48.892;15.312;2023-06-14T01:30:36;14.10;;;6.03;;
3647;SDS011;1840;48.892;15.312;2023-06-14T01:33:05;11.33;;;5.23;;
3647;SDS011;1840;48.892;15.312;2023-06-14T01:35:33;8.70;;;4.90;;
3647;SDS011;1840;48.892;15.312;2023-06-14T01:38:02;12.50;;;5.30;;
3647;SDS011;1840;48.892;15.312;2023-06-14T01:40:32;9.43;;;5.17;;
3647;SDS011;1840;48.892;15.312;2023-06-14T01:43:01;8.00;;;5.40;;
3647;SDS011;1840;48.892;15.312;2023-06-14T01:45:31;10.10;;;5.30;;
3647;SDS011;1840;48.892;15.312;2023-06-14T01:48:00;11.10;;;5.70;;
3647;SDS011;1840;48.892;15.312;2023-06-14T01:50:29;8.20;;;5.40;;
3647;SDS011;1840;48.892;15.312;2023-06-14T01:52:58;11.30;;;5.27;;
3647;SDS011;1840;48.892;15.312;2023-06-14T01:55:26;8.37;;;5.00;;
3647;SDS011;1840;48.892;15.312;2023-06-14T01:57:56;8.97;;;4.43;;
3647;SDS011;1840;48.892;15.312;2023-06-14T02:00:25;9.50;;;5.13;;
3647;SDS011;1840;48.892;15.312;2023-06-14T02:02:53;8.53;;;4.83;;
3647;SDS011;1840;48.892;15.312;2023-06-14T02:05:21;12.43;;;5.30;;
3647;SDS011;1840;48.892;15.312;2023-06-14T02:07:50;15.13;;;5.90;;
3647;SDS011;1840;48.892;15.312;2023-06-14T02:10:20;9.10;;;4.33;;
3647;SDS011;1840;48.892;15.312;2023-06-14T02:12:48;10.07;;;4.60;;
3647;SDS011;1840;48.892;15.312;2023-06-14T02:15:17;8.80;;;4.97;;
3647;SDS011;1840;48.892;15.312;2023-06-14T02:17:46;8.40;;;4.83;;
3647;SDS011;1840;48.892;15.312;2023-06-14T02:20:15;13.90;;;5.00;;
3647;SDS011;1840;48.892;15.312;2023-06-14T02:22:44;10.33;;;5.43;;
3647;SDS011;1840;48.892;15.312;2023-06-14T02:25:13;12.33;;;5.67;;
3647;SDS011;1840;48.892;15.312;2023-06-14T02:27:41;8.10;;;4.60;;
3647;SDS011;1840;48.892;15.312;2023-06-14T02:30:10;8.20;;;5.20;;
3647;SDS011;1840;48.892;15.312;2023-06-14T02:32:41;10.43;;;5.40;;
3647;SDS011;1840;48.892;15.312;2023-06-14T02:35:09;9.47;;;5.53;;
3647;SDS011;1840;48.892;15.312;2023-06-14T02:37:37;8.37;;;4.77;;
3647;SDS011;1840;48.892;15.312;2023-06-14T02:40:06;11.30;;;4.83;;
3647;SDS011;1840;48.892;15.312;2023-06-14T02:42:35;8.67;;;4.70;;
3647;SDS011;1840;48.892;15.312;2023-06-14T02:45:03;9.27;;;5.47;;
3647;SDS011;1840;48.892;15.312;2023-06-14T02:47:32;20.33;;;5.40;;
3647;SDS011;1840;48.892;15.312;2023-06-14T02:50:02;8.20;;;4.40;;
3647;SDS011;1840;48.892;15.312;2023-06-14T02:52:30;10.30;;;5.30;;
3647;SDS011;1840;48.892;15.312;2023-06-14T02:54:59;8.40;;;4.87;;
3647;SDS011;1840;48.892;15.312;2023-06-14T02:57:27;8.37;;;4.60;;
3647;SDS011;1840;48.892;15.312;2023-06-14T02:59:55;8.73;;;5.23;;
3647;SDS011;1840;48.892;15.312;2023-06-14T03:02:23;17.50;;;5.77;;
3647;SDS011;1840;48.892;15.312;2023-06-14T03:04:51;10.90;;;5.10;;
3647;SDS011;1840;48.892;15.312;2023-06-14T03:07:21;8.40;;;5.30;;
3647;SDS011;1840;48.892;15.312;2023-06-14T03:09:53;11.57;;;5.07;;
3647;SDS011;1840;48.892;15.312;2023-06-14T03:12:21;8.00;;;4.90;;
3647;SDS011;1840;48.892;15.312;2023-06-14T03:14:50;10.03;;;5.03;;
3647;SDS011;1840;48.892;15.312;2023-06-14T03:17:18;8.23;;;4.30;;
3647;SDS011;1840;48.892;15.312;2023-06-14T03:19:46;8.00;;;4.60;;
3647;SDS011;1840;48.892;15.312;2023-06-14T03:22:14;8.07;;;5.30;;
3647;SDS011;1840;48.892;15.312;2023-06-14T03:24:44;8.60;;;5.63;;
3647;SDS011;1840;48.892;15.312;2023-06-14T03:27:12;9.70;;;4.73;;
3647;SDS011;1840;48.892;15.312;2023-06-14T03:29:40;7.90;;;5.23;;
3647;SDS011;1840;48.892;15.312;2023-06-14T03:32:08;6.60;;;4.13;;
3647;SDS011;1840;48.892;15.312;2023-06-14T03:34:36;11.63;;;5.10;;
3647;SDS011;1840;48.892;15.312;2023-06-14T03:37:05;7.23;;;4.40;;
3647;SDS011;1840;48.892;15.312;2023-06-14T03:39:33;8.33;;;5.17;;
3647;SDS011;1840;48.892;15.312;2023-06-14T03:42:03;10.00;;;4.83;;
3647;SDS011;1840;48.892;15.312;2023-06-14T03:44:33;11.70;;;5.27;;
3647;SDS011;1840;48.892;15.312;2023-06-14T03:47:01;10.97;;;4.80;;
3647;SDS011;1840;48.892;15.312;2023-06-14T03:49:29;15.50;;;5.87;;
3647;SDS011;1840;48.892;15.312;2023-06-14T03:51:57;12.13;;;5.20;;
3647;SDS011;1840;48.892;15.312;2023-06-14T03:54:25;9.23;;;4.30;;
3647;SDS011;1840;48.892;15.312;2023-06-14T03:57:16;7.70;;;4.60;;
3647;SDS011;1840;48.892;15.312;2023-06-14T03:59:44;11.10;;;4.50;;
3647;SDS011;1840;48.892;15.312;2023-06-14T04:02:13;9.90;;;4.40;;
3647;SDS011;1840;48.892;15.312;2023-06-14T04:04:42;9.13;;;4.47;;
3647;SDS011;1840;48.892;15.312;2023-06-14T04:07:11;7.40;;;4.60;;
3647;SDS011;1840;48.892;15.312;2023-06-14T04:09:39;16.10;;;4.80;;
3647;SDS011;1840;48.892;15.312;2023-06-14T04:12:08;7.13;;;5.00;;
3647;SDS011;1840;48.892;15.312;2023-06-14T04:14:39;8.30;;;5.23;;
3647;SDS011;1840;48.892;15.312;2023-06-14T04:17:07;12.13;;;5.47;;
3647;SDS011;1840;48.892;15.312;2023-06-14T04:19:35;9.60;;;5.50;;
3647;SDS011;1840;48.892;15.312;2023-06-14T04:22:04;12.53;;;5.40;;
3647;SDS011;1840;48.892;15.312;2023-06-14T04:24:32;9.97;;;5.50;;
3647;SDS011;1840;48.892;15.312;2023-06-14T04:27:01;10.77;;;5.20;;
3647;SDS011;1840;48.892;15.312;2023-06-14T04:29:29;12.67;;;5.77;;
3647;SDS011;1840;48.892;15.312;2023-06-14T04:31:59;7.53;;;5.43;;
3647;SDS011;1840;48.892;15.312;2023-06-14T04:34:27;8.43;;;4.63;;
3647;SDS011;1840;48.892;15.312;2023-06-14T04:36:58;9.73;;;5.40;;
3647;SDS011;1840;48.892;15.312;2023-06-14T04:39:27;11.33;;;5.60;;
3647;SDS011;1840;48.892;15.312;2023-06-14T04:41:55;14.90;;;5.23;;
3647;SDS011;1840;48.892;15.312;2023-06-14T04:44:27;7.37;;;5.17;;
3647;SDS011;1840;48.892;15.312;2023-06-14T04:46:59;8.63;;;4.60;;
3647;SDS011;1840;48.892;15.312;2023-06-14T04:49:27;16.63;;;5.93;;
3647;SDS011;1840;48.892;15.312;2023-06-14T04:51:57;10.87;;;4.80;;
3647;SDS011;1840;48.892;15.312;2023-06-14T04:54:25;6.43;;;4.20;;
3647;SDS011;1840;48.892;15.312;2023-06-14T04:56:53;11.53;;;6.10;;
3647;SDS011;1840;48.892;15.312;2023-06-14T04:59:22;7.60;;;4.53;;
3647;SDS011;1840;48.892;15.312;2023-06-14T05:01:50;14.73;;;5.53;;
3647;SDS011;1840;48.892;15.312;2023-06-14T05:04:21;7.00;;;4.60;;
3647;SDS011;1840;48.892;15.312;2023-06-14T05:06:49;11.63;;;5.57;;
3647;SDS011;1840;48.892;15.312;2023-06-14T05:09:17;7.80;;;4.93;;
3647;SDS011;1840;48.892;15.312;2023-06-14T05:11:46;7.83;;;5.10;;
3647;SDS011;1840;48.892;15.312;2023-06-14T05:14:14;9.80;;;5.70;;
3647;SDS011;1840;48.892;15.312;2023-06-14T05:16:42;7.60;;;5.33;;
3647;SDS011;1840;48.892;15.312;2023-06-14T05:19:10;10.70;;;5.30;;
3647;SDS011;1840;48.892;15.312;2023-06-14T05:21:40;9.03;;;4.57;;
3647;SDS011;1840;48.892;15.312;2023-06-14T05:24:09;15.30;;;5.03;;
3647;SDS011;1840;48.892;15.312;2023-06-14T05:26:37;12.23;;;4.73;;
3647;SDS011;1840;48.892;15.312;2023-06-14T05:29:06;6.93;;;4.60;;
3647;SDS011;1840;48.892;15.312;2023-06-14T05:31:34;11.97;;;5.23;;
3647;SDS011;1840;48.892;15.312;2023-06-14T05:34:02;7.70;;;4.40;;
3647;SDS011;1840;48.892;15.312;2023-06-14T05:36:30;10.00;;;5.20;;
3647;SDS011;1840;48.892;15.312;2023-06-14T05:38:59;11.50;;;5.80;;
3647;SDS011;1840;48.892;15.312;2023-06-14T05:41:29;7.33;;;5.10;;
3647;SDS011;1840;48.892;15.312;2023-06-14T05:43:57;8.23;;;4.63;;
3647;SDS011;1840;48.892;15.312;2023-06-14T05:46:26;7.60;;;4.60;;
3647;SDS011;1840;48.892;15.312;2023-06-14T05:48:55;8.93;;;4.70;;
3647;SDS011;1840;48.892;15.312;2023-06-14T05:51:24;10.30;;;4.90;;
3647;SDS011;1840;48.892;15.312;2023-06-14T05:53:52;9.43;;;4.63;;
3647;SDS011;1840;48.892;15.312;2023-06-14T05:56:22;35.53;;;6.87;;
3647;SDS011;1840;48.892;15.312;2023-06-14T05:58:50;14.50;;;4.60;;
3647;SDS011;1840;48.892;15.312;2023-06-14T06:01:18;9.20;;;4.43;;
3647;SDS011;1840;48.892;15.312;2023-06-14T06:03:46;8.30;;;4.90;;
3647;SDS011;1840;48.892;15.312;2023-06-14T06:06:14;15.70;;;4.60;;
3647;SDS011;1840;48.892;15.312;2023-06-14T06:08:43;8.67;;;4.90;;
3647;SDS011;1840;48.892;15.312;2023-06-14T06:11:11;9.00;;;5.13;;
3647;SDS011;1840;48.892;15.312;2023-06-14T06:13:41;9.30;;;4.23;;
3647;SDS011;1840;48.892;15.312;2023-06-14T06:16:09;9.60;;;5.00;;
3647;SDS011;1840;48.892;15.312;2023-06-14T06:18:37;10.27;;;5.23;;
3647;SDS011;1840;48.892;15.312;2023-06-14T06:21:05;12.03;;;5.07;;
3647;SDS011;1840;48.892;15.312;2023-06-14T06:23:33;8.40;;;5.37;;
3647;SDS011;1840;48.892;15.312;2023-06-14T06:26:01;9.80;;;5.70;;
3647;SDS011;1840;48.892;15.312;2023-06-14T06:28:30;7.43;;;4.73;;
3647;SDS011;1840;48.892;15.312;2023-06-14T06:31:00;12.93;;;5.67;;
3647;SDS011;1840;48.892;15.312;2023-06-14T06:33:30;8.87;;;4.80;;
3647;SDS011;1840;48.892;15.312;2023-06-14T06:35:58;9.67;;;5.00;;
3647;SDS011;1840;48.892;15.312;2023-06-14T06:38:26;6.27;;;4.23;;
3647;SDS011;1840;48.892;15.312;2023-06-14T06:40:54;7.90;;;4.73;;
3647;SDS011;1840;48.892;15.312;2023-06-14T06:43:23;5.90;;;3.70;;
3647;SDS011;1840;48.892;15.312;2023-06-14T06:45:51;6.70;;;4.00;;
3647;SDS011;1840;48.892;15.312;2023-06-14T06:48:20;5.93;;;3.30;;
3647;SDS011;1840;48.892;15.312;2023-06-14T06:50:48;7.73;;;3.20;;
3647;SDS011;1840;48.892;15.312;2023-06-14T06:53:17;6.07;;;3.40;;
3647;SDS011;1840;48.892;15.312;2023-06-14T06:55:56;7.10;;;3.40;;
3647;SDS011;1840;48.892;15.312;2023-06-14T06:58:24;9.20;;;4.20;;
3647;SDS011;1840;48.892;15.312;2023-06-14T07:00:53;10.60;;;3.67;;
3647;SDS011;1840;48.892;15.312;2023-06-14T07:03:22;10.13;;;3.37;;
3647;SDS011;1840;48.892;15.312;2023-06-14T07:05:51;6.50;;;3.90;;
3647;SDS011;1840;48.892;15.312;2023-06-14T07:08:19;7.10;;;3.80;;
3647;SDS011;1840;48.892;15.312;2023-06-14T07:10:47;6.40;;;3.57;;
3647;SDS011;1840;48.892;15.312;2023-06-14T07:13:15;5.70;;;3.30;;
3647;SDS011;1840;48.892;15.312;2023-06-14T07:15:43;6.10;;;3.73;;
3647;SDS011;1840;48.892;15.312;2023-06-14T07:18:11;9.07;;;4.00;;
3647;SDS011;1840;48.892;15.312;2023-06-14T07:20:43;7.17;;;3.97;;
3647;SDS011;1840;48.892;15.312;2023-06-14T07:23:11;8.23;;;3.40;;
3647;SDS011;1840;48.892;15.312;2023-06-14T07:25:39;7.57;;;3.80;;
3647;SDS011;1840;48.892;15.312;2023-06-14T07:28:07;6.50;;;4.10;;
3647;SDS011;1840;48.892;15.312;2023-06-14T07:30:36;16.90;;;4.40;;
3647;SDS011;1840;48.892;15.312;2023-06-14T07:33:04;6.70;;;3.70;;
3647;SDS011;1840;48.892;15.312;2023-06-14T07:35:32;6.33;;;3.57;;
3647;SDS011;1840;48.892;15.312;2023-06-14T07:38:01;16.00;;;3.70;;
3647;SDS011;1840;48.892;15.312;2023-06-14T07:40:29;5.80;;;3.20;;
3647;SDS011;1840;48.892;15.312;2023-06-14T07:42:58;7.27;;;3.97;;
3647;SDS011;1840;48.892;15.312;2023-06-14T07:45:26;6.57;;;3.50;;
3647;SDS011;1840;48.892;15.312;2023-06-14T07:47:54;8.83;;;3.90;;
3647;SDS011;1840;48.892;15.312;2023-06-14T07:50:23;6.83;;;3.53;;
3647;SDS011;1840;48.892;15.312;2023-06-14T07:52:51;7.07;;;3.90;;
3647;SDS011;1840;48.892;15.312;2023-06-14T07:55:20;10.70;;;4.40;;
3647;SDS011;1840;48.892;15.312;2023-06-14T07:57:48;10.70;;;6.10;;
3647;SDS011;1840;48.892;15.312;2023-06-14T08:00:17;8.73;;;5.40;;
3647;SDS011;1840;48.892;15.312;2023-06-14T08:02:46;9.80;;;5.03;;
3647;SDS011;1840;48.892;15.312;2023-06-14T08:05:14;7.60;;;4.03;;
3647;SDS011;1840;48.892;15.312;2023-06-14T08:07:43;8.80;;;3.87;;
3647;SDS011;1840;48.892;15.312;2023-06-14T08:10:11;6.43;;;3.90;;
3647;SDS011;1840;48.892;15.312;2023-06-14T08:12:41;7.20;;;3.70;;
3647;SDS011;1840;48.892;15.312;2023-06-14T08:15:09;8.53;;;4.20;;
3647;SDS011;1840;48.892;15.312;2023-06-14T08:17:42;8.83;;;3.50;;
3647;SDS011;1840;48.892;15.312;2023-06-14T08:20:11;10.63;;;4.17;;
3647;SDS011;1840;48.892;15.312;2023-06-14T08:22:40;6.50;;;3.77;;
3647;SDS011;1840;48.892;15.312;2023-06-14T08:25:09;11.80;;;4.47;;
3647;SDS011;1840;48.892;15.312;2023-06-14T08:27:37;6.60;;;3.53;;
3647;SDS011;1840;48.892;15.312;2023-06-14T08:30:07;6.07;;;3.37;;
3647;SDS011;1840;48.892;15.312;2023-06-14T08:32:36;7.90;;;3.67;;
3647;SDS011;1840;48.892;15.312;2023-06-14T08:35:04;7.73;;;3.87;;
3647;SDS011;1840;48.892;15.312;2023-06-14T08:37:33;8.23;;;3.90;;
3647;SDS011;1840;48.892;15.312;2023-06-14T08:40:07;9.97;;;3.67;;
3647;SDS011;1840;48.892;15.312;2023-06-14T08:42:47;7.07;;;3.23;;
3647;SDS011;1840;48.892;15.312;2023-06-14T08:45:19;6.83;;;4.00;;
3647;SDS011;1840;48.892;15.312;2023-06-14T08:47:52;9.73;;;4.20;;
3647;SDS011;1840;48.892;15.312;2023-06-14T08:50:24;6.33;;;3.60;;
3647;SDS011;1840;48.892;15.312;2023-06-14T08:52:57;6.87;;;3.70;;
3647;SDS011;1840;48.892;15.312;2023-06-14T08:55:28;6.43;;;3.07;;
3647;SDS011;1840;48.892;15.312;2023-06-14T08:58:02;7.70;;;4.30;;
3647;SDS011;1840;48.892;15.312;2023-06-14T09:00:32;6.17;;;3.60;;
3647;SDS011;1840;48.892;15.312;2023-06-14T09:03:01;6.83;;;3.50;;
3647;SDS011;1840;48.892;15.312;2023-06-14T09:05:29;16.33;;;3.63;;
3647;SDS011;1840;48.892;15.312;2023-06-14T09:07:57;6.30;;;3.43;;
3647;SDS011;1840;48.892;15.312;2023-06-14T09:10:30;6.73;;;3.30;;
3647;SDS011;1840;48.892;15.312;2023-06-14T09:13:00;7.10;;;3.80;;
3647;SDS011;1840;48.892;15.312;2023-06-14T09:15:29;5.47;;;3.17;;
3647;SDS011;1840;48.892;15.312;2023-06-14T09:17:59;6.27;;;3.43;;
3647;SDS011;1840;48.892;15.312;2023-06-14T09:20:29;7.50;;;3.30;;
3647;SDS011;1840;48.892;15.312;2023-06-14T09:22:58;7.00;;;3.80;;
3647;SDS011;1840;48.892;15.312;2023-06-14T09:25:27;7.60;;;3.70;;
3647;SDS011;1840;48.892;15.312;2023-06-14T09:28:06;7.23;;;3.23;;
3647;SDS011;1840;48.892;15.312;2023-06-14T09:30:36;6.87;;;3.97;;
3647;SDS011;1840;48.892;15.312;2023-06-14T09:33:06;6.50;;;3.13;;
3647;SDS011;1840;48.892;15.312;2023-06-14T09:35:34;6.00;;;3.10;;
3647;SDS011;1840;48.892;15.312;2023-06-14T09:38:03;6.40;;;3.37;;
3647;SDS011;1840;48.892;15.312;2023-06-14T09:40:33;8.40;;;4.27;;
3647;SDS011;1840;48.892;15.312;2023-06-14T09:43:04;9.73;;;3.80;;
3647;SDS011;1840;48.892;15.312;2023-06-14T09:45:34;6.30;;;3.60;;
3647;SDS011;1840;48.892;15.312;2023-06-14T09:48:03;6.93;;;3.40;;
3647;SDS011;1840;48.892;15.312;2023-06-14T09:50:35;5.50;;;3.50;;
3647;SDS011;1840;48.892;15.312;2023-06-14T09:53:05;7.37;;;2.90;;
3647;SDS011;1840;48.892;15.312;2023-06-14T09:55:34;12.20;;;3.60;;
3647;SDS011;1840;48.892;15.312;2023-06-14T09:58:06;8.07;;;3.20;;
3647;SDS011;1840;48.892;15.312;2023-06-14T10:00:35;5.83;;;3.20;;
3647;SDS011;1840;48.892;15.312;2023-06-14T10:03:11;9.03;;;3.30;;
3647;SDS011;1840;48.892;15.312;2023-06-14T10:05:43;7.30;;;3.93;;
3647;SDS011;1840;48.892;15.312;2023-06-14T10:08:14;6.37;;;3.50;;
3647;SDS011;1840;48.892;15.312;2023-06-14T10:10:45;5.33;;;3.03;;
3647;SDS011;1840;48.892;15.312;2023-06-14T10:13:14;6.27;;;3.40;;
3647;SDS011;1840;48.892;15.312;2023-06-14T10:15:45;6.83;;;3.27;;
3647;SDS011;1840;48.892;15.312;2023-06-14T10:18:22;7.20;;;3.50;;
3647;SDS011;1840;48.892;15.312;2023-06-14T10:21:02;6.07;;;3.83;;
3647;SDS011;1840;48.892;15.312;2023-06-14T10:23:36;7.60;;;3.90;;
3647;SDS011;1840;48.892;15.312;2023-06-14T10:26:07;7.50;;;3.97;;
3647;SDS011;1840;48.892;15.312;2023-06-14T10:28:37;5.97;;;3.50;;
3647;SDS011;1840;48.892;15.312;2023-06-14T10:31:06;6.60;;;3.60;;
3647;SDS011;1840;48.892;15.312;2023-06-14T10:33:35;6.40;;;3.10;;
3647;SDS011;1840;48.892;15.312;2023-06-14T10:36:08;8.13;;;3.83;;
3647;SDS011;1840;48.892;15.312;2023-06-14T10:38:37;11.43;;;3.53;;
3647;SDS011;1840;48.892;15.312;2023-06-14T10:41:05;11.13;;;3.30;;
3647;SDS011;1840;48.892;15.312;2023-06-14T10:43:34;7.13;;;3.77;;
3647;SDS011;1840;48.892;15.312;2023-06-14T10:48:49;12.90;;;4.30;;
3647;SDS011;1840;48.892;15.312;2023-06-14T10:51:29;7.13;;;3.40;;
3647;SDS011;1840;48.892;15.312;2023-06-14T10:53:58;6.00;;;3.10;;
3647;SDS011;1840;48.892;15.312;2023-06-14T10:56:29;9.43;;;3.50;;
3647;SDS011;1840;48.892;15.312;2023-06-14T10:58:57;9.40;;;3.17;;
3647;SDS011;1840;48.892;15.312;2023-06-14T11:01:31;6.63;;;3.67;;
3647;SDS011;1840;48.892;15.312;2023-06-14T11:04:07;7.50;;;3.50;;
3647;SDS011;1840;48.892;15.312;2023-06-14T11:06:46;7.17;;;3.63;;
3647;SDS011;1840;48.892;15.312;2023-06-14T11:09:20;7.63;;;3.43;;
3647;SDS011;1840;48.892;15.312;2023-06-14T11:12:02;10.20;;;3.50;;
3647;SDS011;1840;48.892;15.312;2023-06-14T11:14:31;4.80;;;3.10;;
3647;SDS011;1840;48.892;15.312;2023-06-14T11:16:59;6.60;;;3.70;;
3647;SDS011;1840;48.892;15.312;2023-06-14T11:19:27;10.00;;;3.87;;
3647;SDS011;1840;48.892;15.312;2023-06-14T11:21:58;6.77;;;3.43;;
3647;SDS011;1840;48.892;15.312;2023-06-14T11:24:26;10.40;;;4.13;;
3647;SDS011;1840;48.892;15.312;2023-06-14T11:26:55;8.33;;;4.20;;
3647;SDS011;1840;48.892;15.312;2023-06-14T11:29:24;6.00;;;3.27;;
3647;SDS011;1840;48.892;15.312;2023-06-14T11:31:52;6.77;;;3.50;;
3647;SDS011;1840;48.892;15.312;2023-06-14T11:34:21;9.30;;;3.77;;
3647;SDS011;1840;48.892;15.312;2023-06-14T11:36:49;5.53;;;3.23;;
3647;SDS011;1840;48.892;15.312;2023-06-14T11:39:23;6.70;;;3.67;;
3647;SDS011;1840;48.892;15.312;2023-06-14T11:41:52;8.33;;;3.90;;
3647;SDS011;1840;48.892;15.312;2023-06-14T11:44:21;7.37;;;3.90;;
3647;SDS011;1840;48.892;15.312;2023-06-14T11:46:49;8.50;;;3.20;;
3647;SDS011;1840;48.892;15.312;2023-06-14T11:49:18;6.40;;;3.20;;
3647;SDS011;1840;48.892;15.312;2023-06-14T11:51:46;8.77;;;3.80;;
3647;SDS011;1840;48.892;15.312;2023-06-14T11:54:14;6.70;;;3.23;;
3647;SDS011;1840;48.892;15.312;2023-06-14T11:56:44;9.20;;;3.73;;
3647;SDS011;1840;48.892;15.312;2023-06-14T11:59:13;7.17;;;3.47;;
3647;SDS011;1840;48.892;15.312;2023-06-14T12:01:42;7.50;;;3.67;;
3647;SDS011;1840;48.892;15.312;2023-06-14T12:04:11;6.50;;;3.10;;
3647;SDS011;1840;48.892;15.312;2023-06-14T12:06:39;9.33;;;3.83;;
3647;SDS011;1840;48.892;15.312;2023-06-14T12:09:07;13.80;;;3.30;;
3647;SDS011;1840;48.892;15.312;2023-06-14T12:11:40;5.93;;;3.27;;
3647;SDS011;1840;48.892;15.312;2023-06-14T12:14:10;10.03;;;3.27;;
3647;SDS011;1840;48.892;15.312;2023-06-14T12:16:38;5.73;;;3.13;;
3647;SDS011;1840;48.892;15.312;2023-06-14T12:19:08;5.50;;;2.93;;
3647;SDS011;1840;48.892;15.312;2023-06-14T12:21:39;6.40;;;3.40;;
3647;SDS011;1840;48.892;15.312;2023-06-14T12:24:08;10.67;;;3.90;;
3647;SDS011;1840;48.892;15.312;2023-06-14T12:26:39;30.63;;;6.23;;
3647;SDS011;1840;48.892;15.312;2023-06-14T12:29:09;11.70;;;4.63;;
3647;SDS011;1840;48.892;15.312;2023-06-14T12:31:39;11.57;;;4.10;;
3647;SDS011;1840;48.892;15.312;2023-06-14T12:34:07;10.23;;;4.60;;
3647;SDS011;1840;48.892;15.312;2023-06-14T12:36:35;7.00;;;3.53;;
3647;SDS011;1840;48.892;15.312;2023-06-14T12:39:08;7.33;;;3.97;;
3647;SDS011;1840;48.892;15.312;2023-06-14T12:41:36;10.20;;;3.80;;
3647;SDS011;1840;48.892;15.312;2023-06-14T12:44:04;8.30;;;3.50;;
3647;SDS011;1840;48.892;15.312;2023-06-14T12:46:33;6.80;;;3.77;;
3647;SDS011;1840;48.892;15.312;2023-06-14T12:49:03;7.87;;;3.77;;
3647;SDS011;1840;48.892;15.312;2023-06-14T12:51:31;6.83;;;3.40;;
3647;SDS011;1840;48.892;15.312;2023-06-14T12:53:59;6.37;;;3.20;;
3647;SDS011;1840;48.892;15.312;2023-06-14T12:56:27;8.40;;;4.00;;
3647;SDS011;1840;48.892;15.312;2023-06-14T12:58:56;6.70;;;3.43;;
3647;SDS011;1840;48.892;15.312;2023-06-14T13:01:26;9.13;;;3.90;;
3647;SDS011;1840;48.892;15.312;2023-06-14T13:03:55;7.17;;;3.80;;
3647;SDS011;1840;48.892;15.312;2023-06-14T13:06:23;9.10;;;3.23;;
3647;SDS011;1840;48.892;15.312;2023-06-14T13:08:51;7.47;;;3.43;;
3647;SDS011;1840;48.892;15.312;2023-06-14T13:11:21;4.83;;;3.00;;
3647;SDS011;1840;48.892;15.312;2023-06-14T13:13:49;6.03;;;3.10;;
3647;SDS011;1840;48.892;15.312;2023-06-14T13:16:17;6.20;;;3.27;;
3647;SDS011;1840;48.892;15.312;2023-06-14T13:18:45;6.30;;;3.10;;
3647;SDS011;1840;48.892;15.312;2023-06-14T13:21:15;8.70;;;3.20;;
3647;SDS011;1840;48.892;15.312;2023-06-14T13:23:43;7.50;;;2.90;;
3647;SDS011;1840;48.892;15.312;2023-06-14T13:26:11;5.17;;;2.80;;
3647;SDS011;1840;48.892;15.312;2023-06-14T13:28:39;5.10;;;2.97;;
3647;SDS011;1840;48.892;15.312;2023-06-14T13:31:07;7.63;;;2.80;;
3647;SDS011;1840;48.892;15.312;2023-06-14T13:33:35;4.73;;;2.63;;
3647;SDS011;1840;48.892;15.312;2023-06-14T13:36:03;5.00;;;2.70;;
3647;SDS011;1840;48.892;15.312;2023-06-14T13:38:33;5.60;;;3.00;;
3647;SDS011;1840;48.892;15.312;2023-06-14T13:41:01;7.00;;;3.60;;
3647;SDS011;1840;48.892;15.312;2023-06-14T13:43:29;6.77;;;2.90;;
3647;SDS011;1840;48.892;15.312;2023-06-14T13:45:57;6.07;;;3.00;;
3647;SDS011;1840;48.892;15.312;2023-06-14T13:48:25;8.30;;;3.57;;
3647;SDS011;1840;48.892;15.312;2023-06-14T13:50:53;8.63;;;3.50;;
3647;SDS011;1840;48.892;15.312;2023-06-14T13:53:21;6.90;;;3.30;;
3647;SDS011;1840;48.892;15.312;2023-06-14T13:55:51;7.20;;;3.90;;
3647;SDS011;1840;48.892;15.312;2023-06-14T13:58:20;7.73;;;4.23;;
3647;SDS011;1840;48.892;15.312;2023-06-14T14:00:49;11.07;;;4.23;;
3647;SDS011;1840;48.892;15.312;2023-06-14T14:03:18;8.67;;;3.77;;
3647;SDS011;1840;48.892;15.312;2023-06-14T14:05:47;8.23;;;3.63;;
3647;SDS011;1840;48.892;15.312;2023-06-14T14:08:15;7.87;;;3.60;;
3647;SDS011;1840;48.892;15.312;2023-06-14T14:10:43;6.37;;;3.37;;
3647;SDS011;1840;48.892;15.312;2023-06-14T14:13:13;8.60;;;3.40;;
3647;SDS011;1840;48.892;15.312;2023-06-14T14:15:43;7.77;;;4.10;;
3647;SDS011;1840;48.892;15.312;2023-06-14T14:18:11;9.40;;;3.30;;
3647;SDS011;1840;48.892;15.312;2023-06-14T14:20:39;7.67;;;3.97;;
3647;SDS011;1840;48.892;15.312;2023-06-14T14:23:07;6.63;;;3.70;;
3647;SDS011;1840;48.892;15.312;2023-06-14T14:25:35;6.47;;;3.83;;
3647;SDS011;1840;48.892;15.312;2023-06-14T14:28:03;6.90;;;3.10;;
3647;SDS011;1840;48.892;15.312;2023-06-14T14:30:32;6.63;;;3.30;;
3647;SDS011;1840;48.892;15.312;2023-06-14T14:33:01;6.00;;;3.43;;
3647;SDS011;1840;48.892;15.312;2023-06-14T14:35:29;8.53;;;3.63;;
3647;SDS011;1840;48.892;15.312;2023-06-14T14:37:57;14.43;;;4.03;;
3647;SDS011;1840;48.892;15.312;2023-06-14T14:40:25;5.80;;;3.43;;
3647;SDS011;1840;48.892;15.312;2023-06-14T14:42:53;6.60;;;3.83;;
3647;SDS011;1840;48.892;15.312;2023-06-14T14:45:22;6.40;;;3.50;;
3647;SDS011;1840;48.892;15.312;2023-06-14T14:47:52;7.47;;;3.93;;
3647;SDS011;1840;48.892;15.312;2023-06-14T14:50:21;7.30;;;3.77;;
3647;SDS011;1840;48.892;15.312;2023-06-14T14:52:49;10.40;;;3.50;;
3647;SDS011;1840;48.892;15.312;2023-06-14T14:55:17;5.63;;;3.40;;
3647;SDS011;1840;48.892;15.312;2023-06-14T14:57:45;5.97;;;3.37;;
3647;SDS011;1840;48.892;15.312;2023-06-14T15:00:14;5.57;;;3.13;;
3647;SDS011;1840;48.892;15.312;2023-06-14T15:02:44;19.00;;;4.20;;
3647;SDS011;1840;48.892;15.312;2023-06-14T15:05:14;8.40;;;3.60;;
3647;SDS011;1840;48.892;15.312;2023-06-14T15:07:42;7.50;;;3.80;;
3647;SDS011;1840;48.892;15.312;2023-06-14T15:10:11;7.10;;;3.87;;
3647;SDS011;1840;48.892;15.312;2023-06-14T15:12:39;6.20;;;3.13;;